sensor_id;sensor_type;location;lat;lon;timestamp;P1;durP1;ratioP1;P2;durP2;ratioP2
73113;SDS011;61301;51.956;5.876;2023-04-25T00:01:39;3.75;;;1.55;;
73113;SDS011;61301;51.956;5.876;2023-04-25T00:04:06;3.10;;;1.20;;
73113;SDS011;61301;51.956;5.876;2023-04-25T00:06:34;9.85;;;2.40;;
73113;SDS011;61301;51.956;5.876;2023-04-25T00:09:02;10.95;;;2.10;;
73113;SDS011;61301;51.956;5.876;2023-04-25T00:14:02;6.82;;;1.73;;
73113;SDS011;61301;51.956;5.876;2023-04-25T00:16:28;11.13;;;3.00;;
73113;SDS011;61301;51.956;5.876;2023-04-25T00:18:59;6.18;;;2.25;;
73113;SDS011;61301;51.956;5.876;2023-04-25T00:21:25;7.45;;;1.65;;
73113;SDS011;61301;51.956;5.876;2023-04-25T00:23:52;9.68;;;2.53;;
73113;SDS011;61301;51.956;5.876;2023-04-25T00:26:18;7.38;;;2.00;;
73113;SDS011;61301;51.956;5.876;2023-04-25T00:28:45;10.30;;;2.65;;
73113;SDS011;61301;51.956;5.876;2023-04-25T00:31:11;4.95;;;1.98;;
73113;SDS011;61301;51.956;5.876;2023-04-25T00:33:37;5.97;;;1.40;;
73113;SDS011;61301;51.956;5.876;2023-04-25T00:36:03;5.85;;;1.98;;
73113;SDS011;61301;51.956;5.876;2023-04-25T00:38:29;9.90;;;2.30;;
73113;SDS011;61301;51.956;5.876;2023-04-25T00:40:55;3.20;;;1.38;;
73113;SDS011;61301;51.956;5.876;2023-04-25T00:43:21;3.58;;;1.17;;
73113;SDS011;61301;51.956;5.876;2023-04-25T00:45:47;4.47;;;1.75;;
73113;SDS011;61301;51.956;5.876;2023-04-25T00:48:16;4.90;;;1.50;;
73113;SDS011;61301;51.956;5.876;2023-04-25T00:50:44;8.52;;;2.33;;
73113;SDS011;61301;51.956;5.876;2023-04-25T00:53:23;8.52;;;2.15;;
73113;SDS011;61301;51.956;5.876;2023-04-25T00:55:52;8.00;;;1.88;;
73113;SDS011;61301;51.956;5.876;2023-04-25T00:58:19;9.98;;;2.25;;
73113;SDS011;61301;51.956;5.876;2023-04-25T01:00:47;8.40;;;2.65;;
73113;SDS011;61301;51.956;5.876;2023-04-25T01:03:15;9.20;;;3.08;;
73113;SDS011;61301;51.956;5.876;2023-04-25T01:05:42;10.68;;;2.90;;
73113;SDS011;61301;51.956;5.876;2023-04-25T01:08:09;7.60;;;2.28;;
73113;SDS011;61301;51.956;5.876;2023-04-25T01:10:35;11.82;;;3.53;;
73113;SDS011;61301;51.956;5.876;2023-04-25T01:13:02;8.70;;;2.50;;
73113;SDS011;61301;51.956;5.876;2023-04-25T01:15:28;7.93;;;2.50;;
73113;SDS011;61301;51.956;5.876;2023-04-25T01:17:55;4.57;;;1.95;;
73113;SDS011;61301;51.956;5.876;2023-04-25T01:20:21;6.65;;;2.00;;
73113;SDS011;61301;51.956;5.876;2023-04-25T01:22:49;9.15;;;2.35;;
73113;SDS011;61301;51.956;5.876;2023-04-25T01:25:16;13.23;;;3.60;;
73113;SDS011;61301;51.956;5.876;2023-04-25T01:27:43;9.00;;;2.70;;
73113;SDS011;61301;51.956;5.876;2023-04-25T01:30:09;7.72;;;2.85;;
73113;SDS011;61301;51.956;5.876;2023-04-25T01:32:36;3.05;;;1.58;;
73113;SDS011;61301;51.956;5.876;2023-04-25T01:35:09;8.43;;;3.67;;
73113;SDS011;61301;51.956;5.876;2023-04-25T01:40:08;5.75;;;1.85;;
73113;SDS011;61301;51.956;5.876;2023-04-25T01:42:35;6.18;;;1.63;;
73113;SDS011;61301;51.956;5.876;2023-04-25T01:45:03;4.45;;;1.42;;
73113;SDS011;61301;51.956;5.876;2023-04-25T01:47:29;6.15;;;2.42;;
73113;SDS011;61301;51.956;5.876;2023-04-25T01:49:55;6.00;;;2.47;;
73113;SDS011;61301;51.956;5.876;2023-04-25T01:52:22;6.70;;;1.77;;
73113;SDS011;61301;51.956;5.876;2023-04-25T01:54:49;7.30;;;2.42;;
73113;SDS011;61301;51.956;5.876;2023-04-25T01:57:17;9.98;;;2.30;;
73113;SDS011;61301;51.956;5.876;2023-04-25T01:59:43;15.50;;;3.17;;
73113;SDS011;61301;51.956;5.876;2023-04-25T02:02:39;11.88;;;3.60;;
73113;SDS011;61301;51.956;5.876;2023-04-25T02:05:14;8.13;;;2.50;;
73113;SDS011;61301;51.956;5.876;2023-04-25T02:07:42;12.60;;;3.10;;
73113;SDS011;61301;51.956;5.876;2023-04-25T02:10:08;7.50;;;1.90;;
73113;SDS011;61301;51.956;5.876;2023-04-25T02:12:41;8.77;;;2.97;;
73113;SDS011;61301;51.956;5.876;2023-04-25T02:15:21;7.63;;;2.25;;
73113;SDS011;61301;51.956;5.876;2023-04-25T02:17:54;14.07;;;3.42;;
73113;SDS011;61301;51.956;5.876;2023-04-25T02:20:21;10.70;;;3.28;;
73113;SDS011;61301;51.956;5.876;2023-04-25T02:22:48;6.80;;;2.50;;
73113;SDS011;61301;51.956;5.876;2023-04-25T02:25:14;8.55;;;2.45;;
73113;SDS011;61301;51.956;5.876;2023-04-25T02:27:42;6.20;;;2.53;;
73113;SDS011;61301;51.956;5.876;2023-04-25T02:30:08;2.83;;;1.20;;
73113;SDS011;61301;51.956;5.876;2023-04-25T02:32:35;6.82;;;2.00;;
73113;SDS011;61301;51.956;5.876;2023-04-25T02:35:02;8.68;;;2.22;;
73113;SDS011;61301;51.956;5.876;2023-04-25T02:37:32;7.82;;;2.75;;
73113;SDS011;61301;51.956;5.876;2023-04-25T02:40:00;9.80;;;2.85;;
73113;SDS011;61301;51.956;5.876;2023-04-25T02:42:26;12.63;;;3.10;;
73113;SDS011;61301;51.956;5.876;2023-04-25T02:44:52;6.65;;;2.00;;
73113;SDS011;61301;51.956;5.876;2023-04-25T02:47:19;7.35;;;2.17;;
73113;SDS011;61301;51.956;5.876;2023-04-25T02:49:46;5.53;;;2.17;;
73113;SDS011;61301;51.956;5.876;2023-04-25T02:52:12;10.50;;;2.60;;
73113;SDS011;61301;51.956;5.876;2023-04-25T02:54:38;5.43;;;2.30;;
73113;SDS011;61301;51.956;5.876;2023-04-25T02:57:05;9.60;;;2.65;;
73113;SDS011;61301;51.956;5.876;2023-04-25T02:59:36;10.02;;;2.72;;
73113;SDS011;61301;51.956;5.876;2023-04-25T03:02:02;6.93;;;2.03;;
73113;SDS011;61301;51.956;5.876;2023-04-25T03:04:28;12.10;;;3.05;;
73113;SDS011;61301;51.956;5.876;2023-04-25T03:06:54;11.35;;;2.85;;
73113;SDS011;61301;51.956;5.876;2023-04-25T03:09:21;7.22;;;2.03;;
73113;SDS011;61301;51.956;5.876;2023-04-25T03:11:50;14.65;;;3.97;;
73113;SDS011;61301;51.956;5.876;2023-04-25T03:14:17;4.65;;;2.45;;
73113;SDS011;61301;51.956;5.876;2023-04-25T03:16:43;9.23;;;2.45;;
73113;SDS011;61301;51.956;5.876;2023-04-25T03:19:10;6.28;;;2.13;;
73113;SDS011;61301;51.956;5.876;2023-04-25T03:21:36;16.00;;;3.35;;
73113;SDS011;61301;51.956;5.876;2023-04-25T03:24:03;13.55;;;3.33;;
73113;SDS011;61301;51.956;5.876;2023-04-25T03:26:31;6.13;;;2.30;;
73113;SDS011;61301;51.956;5.876;2023-04-25T03:28:57;10.63;;;2.65;;
73113;SDS011;61301;51.956;5.876;2023-04-25T03:31:23;13.07;;;3.45;;
73113;SDS011;61301;51.956;5.876;2023-04-25T03:33:49;10.63;;;2.92;;
73113;SDS011;61301;51.956;5.876;2023-04-25T03:36:16;9.63;;;2.50;;
73113;SDS011;61301;51.956;5.876;2023-04-25T03:38:42;8.15;;;2.80;;
73113;SDS011;61301;51.956;5.876;2023-04-25T03:41:10;7.63;;;2.45;;
73113;SDS011;61301;51.956;5.876;2023-04-25T03:43:45;6.53;;;2.17;;
73113;SDS011;61301;51.956;5.876;2023-04-25T03:46:12;8.30;;;2.17;;
73113;SDS011;61301;51.956;5.876;2023-04-25T03:48:39;9.63;;;2.15;;
73113;SDS011;61301;51.956;5.876;2023-04-25T03:51:07;12.95;;;2.63;;
73113;SDS011;61301;51.956;5.876;2023-04-25T03:53:37;10.68;;;2.75;;
73113;SDS011;61301;51.956;5.876;2023-04-25T03:56:32;6.65;;;2.10;;
73113;SDS011;61301;51.956;5.876;2023-04-25T03:59:07;7.65;;;2.17;;
73113;SDS011;61301;51.956;5.876;2023-04-25T04:01:34;11.80;;;3.80;;
73113;SDS011;61301;51.956;5.876;2023-04-25T04:04:00;10.65;;;2.22;;
73113;SDS011;61301;51.956;5.876;2023-04-25T04:06:28;6.15;;;2.03;;
73113;SDS011;61301;51.956;5.876;2023-04-25T04:09:10;9.85;;;2.75;;
73113;SDS011;61301;51.956;5.876;2023-04-25T04:11:39;5.93;;;2.40;;
73113;SDS011;61301;51.956;5.876;2023-04-25T04:14:06;10.93;;;3.83;;
73113;SDS011;61301;51.956;5.876;2023-04-25T04:16:32;15.35;;;4.18;;
73113;SDS011;61301;51.956;5.876;2023-04-25T04:18:59;6.43;;;2.05;;
73113;SDS011;61301;51.956;5.876;2023-04-25T04:21:25;10.65;;;3.53;;
73113;SDS011;61301;51.956;5.876;2023-04-25T04:23:53;12.75;;;3.30;;
73113;SDS011;61301;51.956;5.876;2023-04-25T04:26:20;13.07;;;3.30;;
73113;SDS011;61301;51.956;5.876;2023-04-25T04:29:02;6.70;;;2.58;;
73113;SDS011;61301;51.956;5.876;2023-04-25T04:31:39;13.32;;;4.30;;
73113;SDS011;61301;51.956;5.876;2023-04-25T04:34:05;6.55;;;2.55;;
73113;SDS011;61301;51.956;5.876;2023-04-25T04:36:33;7.63;;;2.20;;
73113;SDS011;61301;51.956;5.876;2023-04-25T04:38:59;5.97;;;2.42;;
73113;SDS011;61301;51.956;5.876;2023-04-25T04:41:36;9.27;;;3.05;;
73113;SDS011;61301;51.956;5.876;2023-04-25T04:44:09;5.70;;;1.98;;
73113;SDS011;61301;51.956;5.876;2023-04-25T04:47:04;6.10;;;2.45;;
73113;SDS011;61301;51.956;5.876;2023-04-25T04:49:51;9.00;;;3.90;;
73113;SDS011;61301;51.956;5.876;2023-04-25T04:52:30;10.27;;;4.40;;
73113;SDS011;61301;51.956;5.876;2023-04-25T04:55:22;9.48;;;3.25;;
73113;SDS011;61301;51.956;5.876;2023-04-25T04:58:06;6.00;;;3.00;;
73113;SDS011;61301;51.956;5.876;2023-04-25T05:00:43;6.15;;;2.22;;
73113;SDS011;61301;51.956;5.876;2023-04-25T05:03:10;17.00;;;3.97;;
73113;SDS011;61301;51.956;5.876;2023-04-25T05:05:59;12.27;;;3.25;;
73113;SDS011;61301;51.956;5.876;2023-04-25T05:08:47;9.35;;;2.63;;
73113;SDS011;61301;51.956;5.876;2023-04-25T05:11:26;6.22;;;2.58;;
73113;SDS011;61301;51.956;5.876;2023-04-25T05:14:13;4.78;;;1.63;;
73113;SDS011;61301;51.956;5.876;2023-04-25T05:17:02;7.63;;;2.38;;
73113;SDS011;61301;51.956;5.876;2023-04-25T05:19:45;7.15;;;1.98;;
73113;SDS011;61301;51.956;5.876;2023-04-25T05:22:32;4.63;;;1.73;;
73113;SDS011;61301;51.956;5.876;2023-04-25T05:25:08;6.35;;;1.77;;
73113;SDS011;61301;51.956;5.876;2023-04-25T05:27:58;2.33;;;0.95;;
73113;SDS011;61301;51.956;5.876;2023-04-25T05:30:39;4.45;;;1.50;;
73113;SDS011;61301;51.956;5.876;2023-04-25T05:33:13;4.65;;;1.60;;
73113;SDS011;61301;51.956;5.876;2023-04-25T05:35:39;4.22;;;1.25;;
73113;SDS011;61301;51.956;5.876;2023-04-25T05:38:05;4.07;;;1.23;;
73113;SDS011;61301;51.956;5.876;2023-04-25T05:40:55;3.47;;;1.05;;
73113;SDS011;61301;51.956;5.876;2023-04-25T05:43:40;4.60;;;1.42;;
73113;SDS011;61301;51.956;5.876;2023-04-25T05:46:31;8.65;;;2.35;;
73113;SDS011;61301;51.956;5.876;2023-04-25T05:49:16;5.30;;;1.45;;
73113;SDS011;61301;51.956;5.876;2023-04-25T05:52:00;8.27;;;2.47;;
73113;SDS011;61301;51.956;5.876;2023-04-25T05:54:46;5.30;;;2.22;;
73113;SDS011;61301;51.956;5.876;2023-04-25T05:57:25;9.15;;;2.17;;
73113;SDS011;61301;51.956;5.876;2023-04-25T05:59:53;6.10;;;1.95;;
73113;SDS011;61301;51.956;5.876;2023-04-25T06:02:21;5.03;;;1.63;;
73113;SDS011;61301;51.956;5.876;2023-04-25T06:04:51;5.90;;;2.05;;
73113;SDS011;61301;51.956;5.876;2023-04-25T06:07:21;5.32;;;1.67;;
73113;SDS011;61301;51.956;5.876;2023-04-25T06:09:47;5.78;;;1.77;;
73113;SDS011;61301;51.956;5.876;2023-04-25T06:12:14;4.72;;;1.50;;
73113;SDS011;61301;51.956;5.876;2023-04-25T06:14:41;4.72;;;1.30;;
73113;SDS011;61301;51.956;5.876;2023-04-25T06:17:07;6.25;;;1.83;;
73113;SDS011;61301;51.956;5.876;2023-04-25T06:19:34;7.65;;;1.80;;
73113;SDS011;61301;51.956;5.876;2023-04-25T06:22:01;4.28;;;1.63;;
73113;SDS011;61301;51.956;5.876;2023-04-25T06:24:29;3.67;;;1.48;;
73113;SDS011;61301;51.956;5.876;2023-04-25T06:26:56;5.20;;;1.67;;
73113;SDS011;61301;51.956;5.876;2023-04-25T06:29:22;6.22;;;1.70;;
73113;SDS011;61301;51.956;5.876;2023-04-25T06:31:48;5.32;;;1.80;;
73113;SDS011;61301;51.956;5.876;2023-04-25T06:34:14;6.05;;;1.70;;
73113;SDS011;61301;51.956;5.876;2023-04-25T06:36:41;2.45;;;1.20;;
73113;SDS011;61301;51.956;5.876;2023-04-25T06:39:10;4.78;;;1.70;;
73113;SDS011;61301;51.956;5.876;2023-04-25T06:41:36;5.97;;;1.70;;
73113;SDS011;61301;51.956;5.876;2023-04-25T06:44:06;2.97;;;1.20;;
73113;SDS011;61301;51.956;5.876;2023-04-25T06:46:37;5.40;;;1.00;;
73113;SDS011;61301;51.956;5.876;2023-04-25T06:49:04;4.97;;;1.15;;
73113;SDS011;61301;51.956;5.876;2023-04-25T06:51:30;6.13;;;2.70;;
73113;SDS011;61301;51.956;5.876;2023-04-25T06:53:57;7.93;;;2.20;;
73113;SDS011;61301;51.956;5.876;2023-04-25T06:56:35;5.15;;;1.77;;
73113;SDS011;61301;51.956;5.876;2023-04-25T06:59:07;5.28;;;1.95;;
73113;SDS011;61301;51.956;5.876;2023-04-25T07:01:36;2.88;;;0.90;;
73113;SDS011;61301;51.956;5.876;2023-04-25T07:04:06;3.88;;;1.17;;
73113;SDS011;61301;51.956;5.876;2023-04-25T07:06:34;4.53;;;1.15;;
73113;SDS011;61301;51.956;5.876;2023-04-25T07:09:00;9.05;;;2.03;;
73113;SDS011;61301;51.956;5.876;2023-04-25T07:11:26;4.43;;;1.40;;
73113;SDS011;61301;51.956;5.876;2023-04-25T07:13:52;6.38;;;2.13;;
73113;SDS011;61301;51.956;5.876;2023-04-25T07:16:18;7.10;;;1.70;;
73113;SDS011;61301;51.956;5.876;2023-04-25T07:18:45;5.10;;;1.90;;
73113;SDS011;61301;51.956;5.876;2023-04-25T07:21:11;7.38;;;2.10;;
73113;SDS011;61301;51.956;5.876;2023-04-25T07:23:38;5.65;;;1.75;;
73113;SDS011;61301;51.956;5.876;2023-04-25T07:26:10;3.47;;;1.00;;
73113;SDS011;61301;51.956;5.876;2023-04-25T07:28:43;8.57;;;1.65;;
73113;SDS011;61301;51.956;5.876;2023-04-25T07:31:09;6.55;;;1.52;;
73113;SDS011;61301;51.956;5.876;2023-04-25T07:33:35;5.35;;;1.30;;
73113;SDS011;61301;51.956;5.876;2023-04-25T07:36:02;7.22;;;1.95;;
73113;SDS011;61301;51.956;5.876;2023-04-25T07:38:28;6.88;;;2.08;;
73113;SDS011;61301;51.956;5.876;2023-04-25T07:40:54;3.88;;;1.42;;
73113;SDS011;61301;51.956;5.876;2023-04-25T07:43:21;6.75;;;1.80;;
73113;SDS011;61301;51.956;5.876;2023-04-25T07:46:00;8.50;;;1.50;;
73113;SDS011;61301;51.956;5.876;2023-04-25T07:48:29;3.20;;;1.30;;
73113;SDS011;61301;51.956;5.876;2023-04-25T07:50:56;7.05;;;1.48;;
73113;SDS011;61301;51.956;5.876;2023-04-25T07:53:22;3.47;;;1.13;;
73113;SDS011;61301;51.956;5.876;2023-04-25T07:55:53;10.02;;;2.00;;
73113;SDS011;61301;51.956;5.876;2023-04-25T07:58:20;6.05;;;1.98;;
73113;SDS011;61301;51.956;5.876;2023-04-25T08:00:49;5.47;;;1.30;;
73113;SDS011;61301;51.956;5.876;2023-04-25T08:03:38;4.70;;;1.77;;
73113;SDS011;61301;51.956;5.876;2023-04-25T08:06:09;7.07;;;1.98;;
73113;SDS011;61301;51.956;5.876;2023-04-25T08:08:45;4.38;;;1.45;;
73113;SDS011;61301;51.956;5.876;2023-04-25T08:11:16;5.47;;;1.70;;
73113;SDS011;61301;51.956;5.876;2023-04-25T08:13:42;6.35;;;1.27;;
73113;SDS011;61301;51.956;5.876;2023-04-25T08:16:08;4.63;;;1.38;;
73113;SDS011;61301;51.956;5.876;2023-04-25T08:18:35;9.07;;;1.55;;
73113;SDS011;61301;51.956;5.876;2023-04-25T08:21:01;8.00;;;1.70;;
73113;SDS011;61301;51.956;5.876;2023-04-25T08:23:27;5.03;;;1.20;;
73113;SDS011;61301;51.956;5.876;2023-04-25T08:26:03;4.28;;;1.08;;
73113;SDS011;61301;51.956;5.876;2023-04-25T08:28:32;4.50;;;1.38;;
73113;SDS011;61301;51.956;5.876;2023-04-25T08:31:00;4.30;;;1.15;;
73113;SDS011;61301;51.956;5.876;2023-04-25T08:33:33;5.53;;;1.60;;
73113;SDS011;61301;51.956;5.876;2023-04-25T08:36:06;2.75;;;1.10;;
73113;SDS011;61301;51.956;5.876;2023-04-25T08:38:32;6.50;;;1.25;;
73113;SDS011;61301;51.956;5.876;2023-04-25T08:41:00;3.92;;;1.15;;
73113;SDS011;61301;51.956;5.876;2023-04-25T08:43:29;7.63;;;1.75;;
73113;SDS011;61301;51.956;5.876;2023-04-25T08:45:59;4.68;;;1.33;;
73113;SDS011;61301;51.956;5.876;2023-04-25T08:48:35;7.20;;;1.30;;
73113;SDS011;61301;51.956;5.876;2023-04-25T08:51:03;7.53;;;1.30;;
73113;SDS011;61301;51.956;5.876;2023-04-25T08:53:33;5.20;;;1.52;;
73113;SDS011;61301;51.956;5.876;2023-04-25T08:56:02;4.72;;;1.08;;
73113;SDS011;61301;51.956;5.876;2023-04-25T08:58:33;3.85;;;1.10;;
73113;SDS011;61301;51.956;5.876;2023-04-25T09:00:59;3.88;;;1.13;;
73113;SDS011;61301;51.956;5.876;2023-04-25T09:03:27;4.80;;;0.93;;
73113;SDS011;61301;51.956;5.876;2023-04-25T09:05:53;4.72;;;1.63;;
73113;SDS011;61301;51.956;5.876;2023-04-25T09:08:24;4.32;;;1.25;;
73113;SDS011;61301;51.956;5.876;2023-04-25T09:10:50;3.78;;;1.33;;
73113;SDS011;61301;51.956;5.876;2023-04-25T09:13:23;4.07;;;1.08;;
73113;SDS011;61301;51.956;5.876;2023-04-25T09:16:17;3.10;;;1.13;;
73113;SDS011;61301;51.956;5.876;2023-04-25T09:19:20;7.25;;;1.83;;
73113;SDS011;61301;51.956;5.876;2023-04-25T09:21:48;4.65;;;1.08;;
73113;SDS011;61301;51.956;5.876;2023-04-25T09:24:15;4.57;;;1.45;;
73113;SDS011;61301;51.956;5.876;2023-04-25T09:26:41;3.28;;;0.98;;
73113;SDS011;61301;51.956;5.876;2023-04-25T09:29:07;5.57;;;0.77;;
73113;SDS011;61301;51.956;5.876;2023-04-25T09:31:35;4.35;;;0.90;;
73113;SDS011;61301;51.956;5.876;2023-04-25T09:34:03;4.18;;;0.98;;
73113;SDS011;61301;51.956;5.876;2023-04-25T09:36:38;6.18;;;1.08;;
73113;SDS011;61301;51.956;5.876;2023-04-25T09:39:28;7.35;;;1.08;;
73113;SDS011;61301;51.956;5.876;2023-04-25T09:42:09;3.65;;;0.88;;
73113;SDS011;61301;51.956;5.876;2023-04-25T09:44:35;5.60;;;0.82;;
73113;SDS011;61301;51.956;5.876;2023-04-25T09:47:02;3.15;;;0.88;;
73113;SDS011;61301;51.956;5.876;2023-04-25T09:49:30;4.85;;;0.90;;
73113;SDS011;61301;51.956;5.876;2023-04-25T09:52:09;5.85;;;1.05;;
73113;SDS011;61301;51.956;5.876;2023-04-25T09:55:03;3.42;;;0.73;;
73113;SDS011;61301;51.956;5.876;2023-04-25T09:57:33;5.13;;;1.13;;
73113;SDS011;61301;51.956;5.876;2023-04-25T10:00:02;3.13;;;1.08;;
73113;SDS011;61301;51.956;5.876;2023-04-25T10:02:40;5.68;;;1.02;;
73113;SDS011;61301;51.956;5.876;2023-04-25T10:05:10;6.03;;;1.08;;
73113;SDS011;61301;51.956;5.876;2023-04-25T10:07:39;4.25;;;1.10;;
73113;SDS011;61301;51.956;5.876;2023-04-25T10:10:10;2.47;;;0.90;;
73113;SDS011;61301;51.956;5.876;2023-04-25T10:12:38;2.22;;;0.73;;
73113;SDS011;61301;51.956;5.876;2023-04-25T10:15:06;5.22;;;1.17;;
73113;SDS011;61301;51.956;5.876;2023-04-25T10:17:34;3.95;;;0.93;;
73113;SDS011;61301;51.956;5.876;2023-04-25T10:20:03;4.20;;;1.00;;
73113;SDS011;61301;51.956;5.876;2023-04-25T10:22:35;3.70;;;1.20;;
73113;SDS011;61301;51.956;5.876;2023-04-25T10:25:03;1.83;;;0.75;;
73113;SDS011;61301;51.956;5.876;2023-04-25T10:27:30;1.83;;;0.90;;
73113;SDS011;61301;51.956;5.876;2023-04-25T10:30:00;6.03;;;1.33;;
73113;SDS011;61301;51.956;5.876;2023-04-25T10:32:34;3.88;;;0.63;;
73113;SDS011;61301;51.956;5.876;2023-04-25T10:35:18;2.60;;;0.90;;
73113;SDS011;61301;51.956;5.876;2023-04-25T10:38:05;3.65;;;0.77;;
73113;SDS011;61301;51.956;5.876;2023-04-25T10:40:35;2.75;;;0.88;;
73113;SDS011;61301;51.956;5.876;2023-04-25T10:45:59;6.43;;;1.52;;
73113;SDS011;61301;51.956;5.876;2023-04-25T10:48:26;4.22;;;1.23;;
73113;SDS011;61301;51.956;5.876;2023-04-25T10:51:12;5.53;;;1.10;;
73113;SDS011;61301;51.956;5.876;2023-04-25T10:53:46;3.65;;;0.75;;
73113;SDS011;61301;51.956;5.876;2023-04-25T10:56:33;2.17;;;0.88;;
73113;SDS011;61301;51.956;5.876;2023-04-25T11:01:37;2.88;;;0.52;;
73113;SDS011;61301;51.956;5.876;2023-04-25T11:04:04;3.08;;;0.70;;
73113;SDS011;61301;51.956;5.876;2023-04-25T11:06:34;4.57;;;0.88;;
73113;SDS011;61301;51.956;5.876;2023-04-25T11:09:11;2.60;;;0.70;;
73113;SDS011;61301;51.956;5.876;2023-04-25T11:11:40;3.63;;;1.00;;
73113;SDS011;61301;51.956;5.876;2023-04-25T11:14:07;4.28;;;0.82;;
73113;SDS011;61301;51.956;5.876;2023-04-25T11:16:32;1.55;;;0.70;;
73113;SDS011;61301;51.956;5.876;2023-04-25T11:18:58;3.97;;;0.80;;
73113;SDS011;61301;51.956;5.876;2023-04-25T11:21:25;3.28;;;0.77;;
73113;SDS011;61301;51.956;5.876;2023-04-25T11:23:55;1.83;;;0.70;;
73113;SDS011;61301;51.956;5.876;2023-04-25T11:26:22;3.70;;;0.82;;
73113;SDS011;61301;51.956;5.876;2023-04-25T11:28:48;3.95;;;0.95;;
73113;SDS011;61301;51.956;5.876;2023-04-25T11:31:15;2.08;;;0.68;;
73113;SDS011;61301;51.956;5.876;2023-04-25T11:33:41;3.65;;;0.98;;
73113;SDS011;61301;51.956;5.876;2023-04-25T11:36:08;2.47;;;1.08;;
73113;SDS011;61301;51.956;5.876;2023-04-25T11:38:35;2.10;;;0.75;;
73113;SDS011;61301;51.956;5.876;2023-04-25T11:41:01;6.07;;;1.45;;
73113;SDS011;61301;51.956;5.876;2023-04-25T11:43:27;2.03;;;0.57;;
73113;SDS011;61301;51.956;5.876;2023-04-25T11:45:53;3.92;;;1.00;;
73113;SDS011;61301;51.956;5.876;2023-04-25T11:48:20;2.85;;;0.63;;
73113;SDS011;61301;51.956;5.876;2023-04-25T11:50:46;2.22;;;0.60;;
73113;SDS011;61301;51.956;5.876;2023-04-25T11:53:12;3.45;;;0.95;;
73113;SDS011;61301;51.956;5.876;2023-04-25T11:55:38;2.05;;;0.65;;
73113;SDS011;61301;51.956;5.876;2023-04-25T11:58:05;4.18;;;0.80;;
73113;SDS011;61301;51.956;5.876;2023-04-25T12:00:31;3.63;;;1.08;;
73113;SDS011;61301;51.956;5.876;2023-04-25T12:02:58;3.55;;;0.95;;
73113;SDS011;61301;51.956;5.876;2023-04-25T12:05:25;2.47;;;0.70;;
73113;SDS011;61301;51.956;5.876;2023-04-25T12:07:53;4.38;;;0.70;;
73113;SDS011;61301;51.956;5.876;2023-04-25T12:10:19;1.88;;;0.70;;
73113;SDS011;61301;51.956;5.876;2023-04-25T12:12:46;9.43;;;0.88;;
73113;SDS011;61301;51.956;5.876;2023-04-25T12:15:17;4.20;;;0.75;;
73113;SDS011;61301;51.956;5.876;2023-04-25T12:17:48;4.32;;;1.55;;
73113;SDS011;61301;51.956;5.876;2023-04-25T12:20:16;1.85;;;0.70;;
73113;SDS011;61301;51.956;5.876;2023-04-25T12:22:52;5.53;;;0.90;;
73113;SDS011;61301;51.956;5.876;2023-04-25T12:25:37;4.63;;;1.20;;
73113;SDS011;61301;51.956;5.876;2023-04-25T12:28:09;1.67;;;0.57;;
73113;SDS011;61301;51.956;5.876;2023-04-25T12:33:41;2.00;;;0.65;;
73113;SDS011;61301;51.956;5.876;2023-04-25T12:36:09;2.55;;;0.82;;
73113;SDS011;61301;51.956;5.876;2023-04-25T12:38:38;1.80;;;0.70;;
73113;SDS011;61301;51.956;5.876;2023-04-25T12:41:05;2.63;;;0.75;;
73113;SDS011;61301;51.956;5.876;2023-04-25T12:43:32;5.03;;;1.17;;
73113;SDS011;61301;51.956;5.876;2023-04-25T12:45:58;3.60;;;0.80;;
73113;SDS011;61301;51.956;5.876;2023-04-25T12:48:24;6.70;;;1.40;;
73113;SDS011;61301;51.956;5.876;2023-04-25T12:50:51;4.50;;;1.27;;
73113;SDS011;61301;51.956;5.876;2023-04-25T12:53:17;5.55;;;1.55;;
73113;SDS011;61301;51.956;5.876;2023-04-25T12:55:45;5.22;;;1.20;;
73113;SDS011;61301;51.956;5.876;2023-04-25T12:58:17;3.25;;;0.60;;
73113;SDS011;61301;51.956;5.876;2023-04-25T13:00:44;3.53;;;0.95;;
73113;SDS011;61301;51.956;5.876;2023-04-25T13:03:11;4.82;;;1.50;;
73113;SDS011;61301;51.956;5.876;2023-04-25T13:05:38;3.58;;;0.70;;
73113;SDS011;61301;51.956;5.876;2023-04-25T13:08:04;4.78;;;1.33;;
73113;SDS011;61301;51.956;5.876;2023-04-25T13:10:30;1.63;;;0.60;;
73113;SDS011;61301;51.956;5.876;2023-04-25T13:12:59;3.05;;;0.75;;
73113;SDS011;61301;51.956;5.876;2023-04-25T13:15:25;2.90;;;0.68;;
73113;SDS011;61301;51.956;5.876;2023-04-25T13:17:51;5.38;;;1.23;;
73113;SDS011;61301;51.956;5.876;2023-04-25T13:20:17;3.33;;;0.82;;
73113;SDS011;61301;51.956;5.876;2023-04-25T13:22:47;7.75;;;0.98;;
73113;SDS011;61301;51.956;5.876;2023-04-25T13:25:13;2.92;;;0.80;;
73113;SDS011;61301;51.956;5.876;2023-04-25T13:27:39;4.30;;;1.33;;
73113;SDS011;61301;51.956;5.876;2023-04-25T13:30:06;4.43;;;1.10;;
73113;SDS011;61301;51.956;5.876;2023-04-25T13:32:33;4.70;;;1.10;;
73113;SDS011;61301;51.956;5.876;2023-04-25T13:35:02;4.90;;;0.90;;
73113;SDS011;61301;51.956;5.876;2023-04-25T13:37:29;5.35;;;1.05;;
73113;SDS011;61301;51.956;5.876;2023-04-25T13:39:56;6.15;;;0.98;;
73113;SDS011;61301;51.956;5.876;2023-04-25T13:42:23;2.88;;;0.90;;
73113;SDS011;61301;51.956;5.876;2023-04-25T13:44:49;5.25;;;1.15;;
73113;SDS011;61301;51.956;5.876;2023-04-25T13:47:15;2.47;;;0.70;;
73113;SDS011;61301;51.956;5.876;2023-04-25T13:49:41;3.03;;;0.60;;
73113;SDS011;61301;51.956;5.876;2023-04-25T13:52:07;3.60;;;1.00;;
73113;SDS011;61301;51.956;5.876;2023-04-25T13:54:33;4.22;;;0.57;;
73113;SDS011;61301;51.956;5.876;2023-04-25T13:56:59;2.45;;;0.65;;
73113;SDS011;61301;51.956;5.876;2023-04-25T13:59:25;3.83;;;1.30;;
73113;SDS011;61301;51.956;5.876;2023-04-25T14:01:51;1.92;;;0.80;;
73113;SDS011;61301;51.956;5.876;2023-04-25T14:04:17;0.73;;;0.43;;
73113;SDS011;61301;51.956;5.876;2023-04-25T14:06:43;3.13;;;0.50;;
73113;SDS011;61301;51.956;5.876;2023-04-25T14:09:09;4.68;;;0.93;;
73113;SDS011;61301;51.956;5.876;2023-04-25T14:11:36;3.15;;;0.57;;
73113;SDS011;61301;51.956;5.876;2023-04-25T14:14:02;1.70;;;0.55;;
73113;SDS011;61301;51.956;5.876;2023-04-25T14:16:29;1.60;;;0.90;;
73113;SDS011;61301;51.956;5.876;2023-04-25T14:18:55;4.95;;;1.08;;
73113;SDS011;61301;51.956;5.876;2023-04-25T14:21:22;3.53;;;1.02;;
73113;SDS011;61301;51.956;5.876;2023-04-25T14:23:48;4.63;;;0.82;;
73113;SDS011;61301;51.956;5.876;2023-04-25T14:26:14;2.53;;;0.70;;
73113;SDS011;61301;51.956;5.876;2023-04-25T14:28:40;2.15;;;0.80;;
73113;SDS011;61301;51.956;5.876;2023-04-25T14:31:06;5.45;;;0.82;;
73113;SDS011;61301;51.956;5.876;2023-04-25T14:33:32;3.00;;;1.10;;
73113;SDS011;61301;51.956;5.876;2023-04-25T14:35:58;2.28;;;0.70;;
73113;SDS011;61301;51.956;5.876;2023-04-25T14:38:24;4.10;;;1.10;;
73113;SDS011;61301;51.956;5.876;2023-04-25T14:40:54;1.35;;;0.70;;
73113;SDS011;61301;51.956;5.876;2023-04-25T14:43:20;3.17;;;0.93;;
73113;SDS011;61301;51.956;5.876;2023-04-25T14:45:46;3.63;;;1.10;;
73113;SDS011;61301;51.956;5.876;2023-04-25T14:48:12;4.97;;;0.98;;
73113;SDS011;61301;51.956;5.876;2023-04-25T14:50:38;2.33;;;0.70;;
73113;SDS011;61301;51.956;5.876;2023-04-25T14:53:04;5.70;;;0.93;;
73113;SDS011;61301;51.956;5.876;2023-04-25T14:55:30;2.03;;;0.65;;
73113;SDS011;61301;51.956;5.876;2023-04-25T14:57:56;3.40;;;0.82;;
73113;SDS011;61301;51.956;5.876;2023-04-25T15:00:22;4.93;;;0.80;;
73113;SDS011;61301;51.956;5.876;2023-04-25T15:02:48;8.25;;;1.25;;
73113;SDS011;61301;51.956;5.876;2023-04-25T15:05:14;1.83;;;0.75;;
73113;SDS011;61301;51.956;5.876;2023-04-25T15:07:41;3.03;;;0.90;;
73113;SDS011;61301;51.956;5.876;2023-04-25T15:10:07;4.28;;;1.08;;
73113;SDS011;61301;51.956;5.876;2023-04-25T15:12:39;3.92;;;1.20;;
73113;SDS011;61301;51.956;5.876;2023-04-25T15:15:06;2.10;;;0.85;;